sensor_id;sensor_type;location;lat;lon;timestamp;temperature;humidity
774;DHT22;370;48.810;9.150;2023-09-07T00:01:29;14.80;44.90
774;DHT22;370;48.810;9.150;2023-09-07T00:03:56;14.80;44.90
774;DHT22;370;48.810;9.150;2023-09-07T00:06:23;14.70;46.90
774;DHT22;370;48.810;9.150;2023-09-07T00:08:51;14.70;44.80
774;DHT22;370;48.810;9.150;2023-09-07T00:11:18;14.60;47.50
774;DHT22;370;48.810;9.150;2023-09-07T00:13:44;14.60;49.30
774;DHT22;370;48.810;9.150;2023-09-07T00:16:11;14.50;51.00
774;DHT22;370;48.810;9.150;2023-09-07T00:18:38;14.50;52.10
774;DHT22;370;48.810;9.150;2023-09-07T00:23:40;14.50;52.40
774;DHT22;370;48.810;9.150;2023-09-07T00:26:08;14.40;53.20
774;DHT22;370;48.810;9.150;2023-09-07T00:28:38;14.40;53.70
774;DHT22;370;48.810;9.150;2023-09-07T00:31:04;14.30;54.40
774;DHT22;370;48.810;9.150;2023-09-07T00:33:31;14.30;54.40
774;DHT22;370;48.810;9.150;2023-09-07T00:35:58;14.20;54.30
774;DHT22;370;48.810;9.150;2023-09-07T00:38:24;14.20;54.30
774;DHT22;370;48.810;9.150;2023-09-07T00:40:51;14.20;55.00
774;DHT22;370;48.810;9.150;2023-09-07T00:43:19;14.20;56.00
774;DHT22;370;48.810;9.150;2023-09-07T00:45:46;14.20;54.30
774;DHT22;370;48.810;9.150;2023-09-07T00:48:14;14.20;55.80
774;DHT22;370;48.810;9.150;2023-09-07T00:50:41;14.10;57.80
774;DHT22;370;48.810;9.150;2023-09-07T00:53:09;14.10;55.80
774;DHT22;370;48.810;9.150;2023-09-07T00:55:37;14.10;57.90
774;DHT22;370;48.810;9.150;2023-09-07T00:58:04;14.10;58.20
774;DHT22;370;48.810;9.150;2023-09-07T01:00:34;14.10;58.00
774;DHT22;370;48.810;9.150;2023-09-07T01:03:01;14.10;57.20
774;DHT22;370;48.810;9.150;2023-09-07T01:05:32;14.00;57.20
774;DHT22;370;48.810;9.150;2023-09-07T01:08:06;14.00;57.60
774;DHT22;370;48.810;9.150;2023-09-07T01:10:34;14.00;57.80
774;DHT22;370;48.810;9.150;2023-09-07T01:13:00;14.00;57.90
774;DHT22;370;48.810;9.150;2023-09-07T01:15:27;14.00;57.70
774;DHT22;370;48.810;9.150;2023-09-07T01:17:55;14.00;57.80
774;DHT22;370;48.810;9.150;2023-09-07T01:20:24;13.90;57.50
774;DHT22;370;48.810;9.150;2023-09-07T01:22:53;13.90;57.40
774;DHT22;370;48.810;9.150;2023-09-07T01:25:21;13.90;57.40
774;DHT22;370;48.810;9.150;2023-09-07T01:27:49;13.90;58.30
774;DHT22;370;48.810;9.150;2023-09-07T01:30:16;13.90;58.50
774;DHT22;370;48.810;9.150;2023-09-07T01:32:43;13.80;58.10
774;DHT22;370;48.810;9.150;2023-09-07T01:35:11;13.80;58.10
774;DHT22;370;48.810;9.150;2023-09-07T01:37:40;13.80;58.00
774;DHT22;370;48.810;9.150;2023-09-07T01:40:08;13.80;58.10
774;DHT22;370;48.810;9.150;2023-09-07T01:42:35;13.80;58.80
774;DHT22;370;48.810;9.150;2023-09-07T01:45:03;13.70;59.50
774;DHT22;370;48.810;9.150;2023-09-07T01:47:30;13.70;59.90
774;DHT22;370;48.810;9.150;2023-09-07T01:49:57;13.70;60.30
774;DHT22;370;48.810;9.150;2023-09-07T01:52:23;13.60;60.40
774;DHT22;370;48.810;9.150;2023-09-07T01:54:50;13.60;61.80
774;DHT22;370;48.810;9.150;2023-09-07T01:57:18;13.60;62.00
774;DHT22;370;48.810;9.150;2023-09-07T01:59:45;13.60;63.10
774;DHT22;370;48.810;9.150;2023-09-07T02:02:13;13.50;63.50
774;DHT22;370;48.810;9.150;2023-09-07T02:04:40;13.50;63.60
774;DHT22;370;48.810;9.150;2023-09-07T02:07:11;13.50;63.50
774;DHT22;370;48.810;9.150;2023-09-07T02:09:38;13.40;63.50
774;DHT22;370;48.810;9.150;2023-09-07T02:12:05;13.50;63.50
774;DHT22;370;48.810;9.150;2023-09-07T02:14:33;13.40;63.40
774;DHT22;370;48.810;9.150;2023-09-07T02:17:00;13.40;63.40
774;DHT22;370;48.810;9.150;2023-09-07T02:19:26;13.40;63.40
774;DHT22;370;48.810;9.150;2023-09-07T02:21:53;13.30;64.40
774;DHT22;370;48.810;9.150;2023-09-07T02:24:20;13.30;64.30
774;DHT22;370;48.810;9.150;2023-09-07T02:26:46;13.30;65.20
774;DHT22;370;48.810;9.150;2023-09-07T02:29:13;13.20;66.30
774;DHT22;370;48.810;9.150;2023-09-07T02:31:41;13.20;66.20
774;DHT22;370;48.810;9.150;2023-09-07T02:34:08;13.20;66.60
774;DHT22;370;48.810;9.150;2023-09-07T02:36:35;13.20;66.80
774;DHT22;370;48.810;9.150;2023-09-07T02:39:01;13.10;67.80
774;DHT22;370;48.810;9.150;2023-09-07T02:41:30;13.10;68.30
774;DHT22;370;48.810;9.150;2023-09-07T02:43:57;13.10;68.30
774;DHT22;370;48.810;9.150;2023-09-07T02:46:23;13.10;68.30
774;DHT22;370;48.810;9.150;2023-09-07T02:48:51;13.00;67.90
774;DHT22;370;48.810;9.150;2023-09-07T02:51:20;13.00;69.20
774;DHT22;370;48.810;9.150;2023-09-07T02:53:47;13.00;69.60
774;DHT22;370;48.810;9.150;2023-09-07T02:56:14;13.10;68.30
774;DHT22;370;48.810;9.150;2023-09-07T02:58:41;13.10;68.20
774;DHT22;370;48.810;9.150;2023-09-07T03:01:08;13.10;68.00
774;DHT22;370;48.810;9.150;2023-09-07T03:03:35;13.10;67.70
774;DHT22;370;48.810;9.150;2023-09-07T03:06:09;13.00;68.10
774;DHT22;370;48.810;9.150;2023-09-07T03:08:36;13.10;68.50
774;DHT22;370;48.810;9.150;2023-09-07T03:11:03;13.00;68.40
774;DHT22;370;48.810;9.150;2023-09-07T03:13:31;13.00;69.80
774;DHT22;370;48.810;9.150;2023-09-07T03:15:58;13.10;69.90
774;DHT22;370;48.810;9.150;2023-09-07T03:18:25;13.20;68.50
774;DHT22;370;48.810;9.150;2023-09-07T03:20:53;13.10;68.30
774;DHT22;370;48.810;9.150;2023-09-07T03:23:22;13.10;68.20
774;DHT22;370;48.810;9.150;2023-09-07T03:25:49;13.10;68.30
774;DHT22;370;48.810;9.150;2023-09-07T03:28:15;13.10;68.20
774;DHT22;370;48.810;9.150;2023-09-07T03:30:42;13.20;68.20
774;DHT22;370;48.810;9.150;2023-09-07T03:33:09;13.30;67.90
774;DHT22;370;48.810;9.150;2023-09-07T03:35:35;13.30;64.70
774;DHT22;370;48.810;9.150;2023-09-07T03:38:03;13.30;63.90
774;DHT22;370;48.810;9.150;2023-09-07T03:40:31;13.40;63.40
774;DHT22;370;48.810;9.150;2023-09-07T03:42:57;13.40;63.40
774;DHT22;370;48.810;9.150;2023-09-07T03:45:24;13.40;62.10
774;DHT22;370;48.810;9.150;2023-09-07T03:47:51;13.30;61.10
774;DHT22;370;48.810;9.150;2023-09-07T03:50:18;13.30;60.90
774;DHT22;370;48.810;9.150;2023-09-07T03:52:44;13.20;61.80
774;DHT22;370;48.810;9.150;2023-09-07T03:55:11;13.20;63.30
774;DHT22;370;48.810;9.150;2023-09-07T03:57:39;13.20;63.30
774;DHT22;370;48.810;9.150;2023-09-07T04:00:07;13.20;63.30
774;DHT22;370;48.810;9.150;2023-09-07T04:02:34;13.20;62.40
774;DHT22;370;48.810;9.150;2023-09-07T04:05:01;13.30;63.00
774;DHT22;370;48.810;9.150;2023-09-07T04:07:30;13.30;61.30
774;DHT22;370;48.810;9.150;2023-09-07T04:09:57;13.30;61.80
774;DHT22;370;48.810;9.150;2023-09-07T04:12:24;13.30;60.20
774;DHT22;370;48.810;9.150;2023-09-07T04:14:52;13.40;56.00
774;DHT22;370;48.810;9.150;2023-09-07T04:17:19;13.40;53.60
774;DHT22;370;48.810;9.150;2023-09-07T04:19:46;13.50;52.00
774;DHT22;370;48.810;9.150;2023-09-07T04:22:13;13.40;51.90
774;DHT22;370;48.810;9.150;2023-09-07T04:24:39;13.40;51.50
774;DHT22;370;48.810;9.150;2023-09-07T04:27:06;13.40;50.40
774;DHT22;370;48.810;9.150;2023-09-07T04:29:33;13.30;50.40
774;DHT22;370;48.810;9.150;2023-09-07T04:32:01;13.30;50.80
774;DHT22;370;48.810;9.150;2023-09-07T04:34:28;13.30;52.10
774;DHT22;370;48.810;9.150;2023-09-07T04:36:54;13.30;51.80
774;DHT22;370;48.810;9.150;2023-09-07T04:39:21;13.20;52.20
774;DHT22;370;48.810;9.150;2023-09-07T04:41:48;13.20;52.60
774;DHT22;370;48.810;9.150;2023-09-07T04:44:15;13.20;52.50
774;DHT22;370;48.810;9.150;2023-09-07T04:46:41;13.20;52.80
774;DHT22;370;48.810;9.150;2023-09-07T04:49:09;13.10;53.40
774;DHT22;370;48.810;9.150;2023-09-07T04:51:36;13.20;54.30
774;DHT22;370;48.810;9.150;2023-09-07T04:54:03;13.10;53.30
774;DHT22;370;48.810;9.150;2023-09-07T04:56:30;13.10;54.50
774;DHT22;370;48.810;9.150;2023-09-07T04:58:57;13.00;55.60
774;DHT22;370;48.810;9.150;2023-09-07T05:01:23;13.00;55.60
774;DHT22;370;48.810;9.150;2023-09-07T05:03:50;13.00;56.70
774;DHT22;370;48.810;9.150;2023-09-07T05:06:18;13.00;57.20
774;DHT22;370;48.810;9.150;2023-09-07T05:08:47;13.10;57.70
774;DHT22;370;48.810;9.150;2023-09-07T05:11:14;13.10;57.00
774;DHT22;370;48.810;9.150;2023-09-07T05:13:40;13.20;55.70
774;DHT22;370;48.810;9.150;2023-09-07T05:16:07;13.20;55.60
774;DHT22;370;48.810;9.150;2023-09-07T05:18:34;13.20;54.30
774;DHT22;370;48.810;9.150;2023-09-07T05:21:00;13.20;54.60
774;DHT22;370;48.810;9.150;2023-09-07T05:23:29;13.30;54.60
774;DHT22;370;48.810;9.150;2023-09-07T05:25:55;13.30;55.20
774;DHT22;370;48.810;9.150;2023-09-07T05:28:22;13.40;55.50
774;DHT22;370;48.810;9.150;2023-09-07T05:30:49;13.50;54.90
774;DHT22;370;48.810;9.150;2023-09-07T05:33:17;13.60;54.90
774;DHT22;370;48.810;9.150;2023-09-07T05:35:44;13.60;53.80
774;DHT22;370;48.810;9.150;2023-09-07T05:38:12;13.70;55.50
774;DHT22;370;48.810;9.150;2023-09-07T05:40:41;13.80;54.00
774;DHT22;370;48.810;9.150;2023-09-07T05:43:09;13.90;51.80
774;DHT22;370;48.810;9.150;2023-09-07T05:45:38;14.00;50.50
774;DHT22;370;48.810;9.150;2023-09-07T05:48:05;14.20;49.40
774;DHT22;370;48.810;9.150;2023-09-07T05:50:35;14.30;48.10
774;DHT22;370;48.810;9.150;2023-09-07T05:53:02;14.50;47.00
774;DHT22;370;48.810;9.150;2023-09-07T05:55:30;14.60;45.60
774;DHT22;370;48.810;9.150;2023-09-07T05:57:58;14.80;44.50
774;DHT22;370;48.810;9.150;2023-09-07T06:00:27;15.00;44.10
774;DHT22;370;48.810;9.150;2023-09-07T06:02:54;15.30;42.40
774;DHT22;370;48.810;9.150;2023-09-07T06:05:21;15.60;40.90
774;DHT22;370;48.810;9.150;2023-09-07T06:07:47;16.00;35.70
774;DHT22;370;48.810;9.150;2023-09-07T06:10:14;16.40;31.80
774;DHT22;370;48.810;9.150;2023-09-07T06:12:43;16.80;27.80
774;DHT22;370;48.810;9.150;2023-09-07T06:15:11;17.20;22.60
774;DHT22;370;48.810;9.150;2023-09-07T06:17:37;17.50;18.90
774;DHT22;370;48.810;9.150;2023-09-07T06:20:05;18.00;16.60
774;DHT22;370;48.810;9.150;2023-09-07T06:22:32;18.60;12.80
774;DHT22;370;48.810;9.150;2023-09-07T06:25:01;19.20;9.10
774;DHT22;370;48.810;9.150;2023-09-07T06:27:28;19.70;3.90
774;DHT22;370;48.810;9.150;2023-09-07T06:29:55;20.30;2.30
774;DHT22;370;48.810;9.150;2023-09-07T06:32:23;20.90;1.00
774;DHT22;370;48.810;9.150;2023-09-07T06:34:50;21.50;1.00
774;DHT22;370;48.810;9.150;2023-09-07T06:37:17;22.20;1.00
774;DHT22;370;48.810;9.150;2023-09-07T06:39:44;22.70;1.00
774;DHT22;370;48.810;9.150;2023-09-07T06:42:10;23.30;1.00
774;DHT22;370;48.810;9.150;2023-09-07T06:44:37;23.70;1.00
774;DHT22;370;48.810;9.150;2023-09-07T06:47:04;23.70;1.00
774;DHT22;370;48.810;9.150;2023-09-07T06:49:33;24.40;1.00
774;DHT22;370;48.810;9.150;2023-09-07T06:52:00;25.20;1.00
774;DHT22;370;48.810;9.150;2023-09-07T06:54:28;26.10;1.00
774;DHT22;370;48.810;9.150;2023-09-07T06:56:58;26.60;1.00
774;DHT22;370;48.810;9.150;2023-09-07T06:59:44;27.30;1.00
774;DHT22;370;48.810;9.150;2023-09-07T07:09:10;29.80;1.00
774;DHT22;370;48.810;9.150;2023-09-07T07:11:40;30.40;1.00
774;DHT22;370;48.810;9.150;2023-09-07T07:14:10;30.70;1.00
774;DHT22;370;48.810;9.150;2023-09-07T07:16:37;31.40;1.00
774;DHT22;370;48.810;9.150;2023-09-07T07:19:04;32.00;1.00
774;DHT22;370;48.810;9.150;2023-09-07T07:21:32;32.20;1.00
774;DHT22;370;48.810;9.150;2023-09-07T07:23:59;32.60;1.00
774;DHT22;370;48.810;9.150;2023-09-07T07:26:26;33.10;1.00
774;DHT22;370;48.810;9.150;2023-09-07T07:28:52;33.50;1.00
774;DHT22;370;48.810;9.150;2023-09-07T07:31:19;34.00;1.00
774;DHT22;370;48.810;9.150;2023-09-07T07:33:46;34.60;1.00
774;DHT22;370;48.810;9.150;2023-09-07T07:36:14;35.20;1.00
774;DHT22;370;48.810;9.150;2023-09-07T07:38:42;35.70;1.00
774;DHT22;370;48.810;9.150;2023-09-07T07:41:09;36.30;1.00
774;DHT22;370;48.810;9.150;2023-09-07T07:43:36;36.80;1.00
774;DHT22;370;48.810;9.150;2023-09-07T07:46:03;37.50;1.00
774;DHT22;370;48.810;9.150;2023-09-07T07:48:29;37.70;1.00
774;DHT22;370;48.810;9.150;2023-09-07T07:50:56;38.20;1.00
774;DHT22;370;48.810;9.150;2023-09-07T07:53:23;38.80;1.00
774;DHT22;370;48.810;9.150;2023-09-07T07:55:51;39.10;1.00
774;DHT22;370;48.810;9.150;2023-09-07T07:58:18;39.40;1.00
774;DHT22;370;48.810;9.150;2023-09-07T08:00:45;39.00;1.00
774;DHT22;370;48.810;9.150;2023-09-07T08:03:14;36.20;1.00
774;DHT22;370;48.810;9.150;2023-09-07T08:05:41;36.10;1.00
774;DHT22;370;48.810;9.150;2023-09-07T08:08:08;36.60;1.00
774;DHT22;370;48.810;9.150;2023-09-07T08:10:35;37.50;1.00
774;DHT22;370;48.810;9.150;2023-09-07T08:13:04;38.70;1.00
774;DHT22;370;48.810;9.150;2023-09-07T08:15:32;39.60;1.00
774;DHT22;370;48.810;9.150;2023-09-07T08:17:58;40.00;1.00
774;DHT22;370;48.810;9.150;2023-09-07T08:20:25;39.10;1.00
774;DHT22;370;48.810;9.150;2023-09-07T08:22:53;39.80;1.00
774;DHT22;370;48.810;9.150;2023-09-07T08:25:20;39.80;1.00
774;DHT22;370;48.810;9.150;2023-09-07T08:27:47;39.90;1.00
774;DHT22;370;48.810;9.150;2023-09-07T08:30:16;39.50;1.00
774;DHT22;370;48.810;9.150;2023-09-07T08:32:44;38.70;1.00
774;DHT22;370;48.810;9.150;2023-09-07T08:35:11;39.50;1.00
774;DHT22;370;48.810;9.150;2023-09-07T08:37:39;39.60;1.00
774;DHT22;370;48.810;9.150;2023-09-07T08:40:07;39.00;1.00
774;DHT22;370;48.810;9.150;2023-09-07T08:42:35;39.50;1.00
774;DHT22;370;48.810;9.150;2023-09-07T08:45:04;40.10;1.00
774;DHT22;370;48.810;9.150;2023-09-07T08:47:34;40.80;1.00
774;DHT22;370;48.810;9.150;2023-09-07T08:50:01;41.20;1.00
774;DHT22;370;48.810;9.150;2023-09-07T08:52:28;40.00;1.00
774;DHT22;370;48.810;9.150;2023-09-07T08:54:56;39.90;1.00
774;DHT22;370;48.810;9.150;2023-09-07T08:57:27;40.00;1.00
774;DHT22;370;48.810;9.150;2023-09-07T08:59:56;39.30;1.00
774;DHT22;370;48.810;9.150;2023-09-07T09:02:22;39.80;1.00
774;DHT22;370;48.810;9.150;2023-09-07T09:04:51;40.50;1.00
774;DHT22;370;48.810;9.150;2023-09-07T09:07:19;41.30;1.00
774;DHT22;370;48.810;9.150;2023-09-07T09:09:46;42.20;1.00
774;DHT22;370;48.810;9.150;2023-09-07T09:12:13;42.60;1.00
774;DHT22;370;48.810;9.150;2023-09-07T09:14:42;43.50;1.00
774;DHT22;370;48.810;9.150;2023-09-07T09:17:11;44.70;1.00
774;DHT22;370;48.810;9.150;2023-09-07T09:19:39;46.00;1.00
774;DHT22;370;48.810;9.150;2023-09-07T09:22:08;46.80;1.00
774;DHT22;370;48.810;9.150;2023-09-07T09:24:35;47.20;1.00
774;DHT22;370;48.810;9.150;2023-09-07T09:27:02;46.40;1.00
774;DHT22;370;48.810;9.150;2023-09-07T09:29:31;45.90;1.00
774;DHT22;370;48.810;9.150;2023-09-07T09:32:00;47.60;1.00
774;DHT22;370;48.810;9.150;2023-09-07T09:34:32;47.50;1.00
774;DHT22;370;48.810;9.150;2023-09-07T09:36:59;47.10;1.00
774;DHT22;370;48.810;9.150;2023-09-07T09:39:27;45.30;1.00
774;DHT22;370;48.810;9.150;2023-09-07T09:41:54;46.40;1.00
774;DHT22;370;48.810;9.150;2023-09-07T09:44:23;48.10;1.00
774;DHT22;370;48.810;9.150;2023-09-07T09:46:51;49.30;1.00
774;DHT22;370;48.810;9.150;2023-09-07T09:49:20;47.50;1.00
774;DHT22;370;48.810;9.150;2023-09-07T09:51:48;47.70;1.00
774;DHT22;370;48.810;9.150;2023-09-07T09:54:17;48.90;1.00
774;DHT22;370;48.810;9.150;2023-09-07T09:56:45;49.10;1.00
774;DHT22;370;48.810;9.150;2023-09-07T09:59:13;49.90;1.00
774;DHT22;370;48.810;9.150;2023-09-07T10:01:43;50.10;1.00
774;DHT22;370;48.810;9.150;2023-09-07T10:04:11;48.10;1.00
774;DHT22;370;48.810;9.150;2023-09-07T10:06:49;48.00;1.00
774;DHT22;370;48.810;9.150;2023-09-07T10:09:16;49.40;1.00
774;DHT22;370;48.810;9.150;2023-09-07T10:11:52;51.20;1.00
774;DHT22;370;48.810;9.150;2023-09-07T10:14:19;50.70;1.00
774;DHT22;370;48.810;9.150;2023-09-07T10:16:47;48.90;1.00
774;DHT22;370;48.810;9.150;2023-09-07T10:19:15;50.60;1.00
774;DHT22;370;48.810;9.150;2023-09-07T10:21:41;50.60;1.00
774;DHT22;370;48.810;9.150;2023-09-07T10:24:09;50.70;1.00
774;DHT22;370;48.810;9.150;2023-09-07T10:26:35;51.80;1.00
774;DHT22;370;48.810;9.150;2023-09-07T10:29:04;52.80;1.00
774;DHT22;370;48.810;9.150;2023-09-07T10:31:31;53.40;1.00
774;DHT22;370;48.810;9.150;2023-09-07T10:34:08;53.50;1.00
774;DHT22;370;48.810;9.150;2023-09-07T10:36:34;53.50;1.00
774;DHT22;370;48.810;9.150;2023-09-07T10:39:02;53.40;1.00
774;DHT22;370;48.810;9.150;2023-09-07T10:41:39;53.00;1.00
774;DHT22;370;48.810;9.150;2023-09-07T10:44:07;53.80;1.00
774;DHT22;370;48.810;9.150;2023-09-07T10:46:37;54.80;1.00
774;DHT22;370;48.810;9.150;2023-09-07T10:49:07;54.00;1.00
774;DHT22;370;48.810;9.150;2023-09-07T10:51:40;54.50;1.00
774;DHT22;370;48.810;9.150;2023-09-07T10:54:14;52.80;1.00
774;DHT22;370;48.810;9.150;2023-09-07T10:56:43;52.40;1.00
774;DHT22;370;48.810;9.150;2023-09-07T10:59:13;51.60;1.00
774;DHT22;370;48.810;9.150;2023-09-07T11:01:40;52.90;1.00
774;DHT22;370;48.810;9.150;2023-09-07T11:04:07;53.20;1.00
774;DHT22;370;48.810;9.150;2023-09-07T11:06:37;54.00;1.00
774;DHT22;370;48.810;9.150;2023-09-07T11:09:05;54.60;1.00
774;DHT22;370;48.810;9.150;2023-09-07T11:11:34;55.40;1.00
774;DHT22;370;48.810;9.150;2023-09-07T11:14:03;55.90;1.00
774;DHT22;370;48.810;9.150;2023-09-07T11:16:33;56.10;1.00
774;DHT22;370;48.810;9.150;2023-09-07T11:19:03;56.70;1.00
774;DHT22;370;48.810;9.150;2023-09-07T11:21:30;56.60;1.00
774;DHT22;370;48.810;9.150;2023-09-07T11:23:58;57.20;1.00
774;DHT22;370;48.810;9.150;2023-09-07T11:26:25;56.90;1.00
774;DHT22;370;48.810;9.150;2023-09-07T11:28:52;57.00;1.00
774;DHT22;370;48.810;9.150;2023-09-07T11:31:19;56.80;1.00
774;DHT22;370;48.810;9.150;2023-09-07T11:33:48;57.30;1.00
774;DHT22;370;48.810;9.150;2023-09-07T11:36:15;55.70;1.00
774;DHT22;370;48.810;9.150;2023-09-07T11:38:44;55.30;1.00
774;DHT22;370;48.810;9.150;2023-09-07T11:41:12;55.90;1.00
774;DHT22;370;48.810;9.150;2023-09-07T11:47:15;55.80;1.00
774;DHT22;370;48.810;9.150;2023-09-07T11:49:47;56.00;1.00
774;DHT22;370;48.810;9.150;2023-09-07T11:52:22;56.50;1.00
774;DHT22;370;48.810;9.150;2023-09-07T11:55:36;56.30;1.00
774;DHT22;370;48.810;9.150;2023-09-07T11:58:14;55.80;1.00
774;DHT22;370;48.810;9.150;2023-09-07T12:11:05;58.40;1.00
774;DHT22;370;48.810;9.150;2023-09-07T12:16:14;57.20;1.00
774;DHT22;370;48.810;9.150;2023-09-07T12:18:41;57.00;1.00
774;DHT22;370;48.810;9.150;2023-09-07T12:21:08;55.50;1.00
774;DHT22;370;48.810;9.150;2023-09-07T12:23:35;55.30;1.00
774;DHT22;370;48.810;9.150;2023-09-07T12:26:05;54.60;1.00
774;DHT22;370;48.810;9.150;2023-09-07T12:28:32;52.80;1.00
774;DHT22;370;48.810;9.150;2023-09-07T12:30:58;50.30;1.00
774;DHT22;370;48.810;9.150;2023-09-07T12:33:25;51.40;1.00
774;DHT22;370;48.810;9.150;2023-09-07T12:35:54;51.40;1.00
774;DHT22;370;48.810;9.150;2023-09-07T12:38:22;52.30;1.00
774;DHT22;370;48.810;9.150;2023-09-07T12:40:53;53.70;1.00
774;DHT22;370;48.810;9.150;2023-09-07T12:43:21;53.60;1.00
774;DHT22;370;48.810;9.150;2023-09-07T12:45:50;51.40;1.00
774;DHT22;370;48.810;9.150;2023-09-07T12:48:17;51.20;1.00
774;DHT22;370;48.810;9.150;2023-09-07T12:50:43;52.20;1.00
774;DHT22;370;48.810;9.150;2023-09-07T12:53:10;52.10;1.00
774;DHT22;370;48.810;9.150;2023-09-07T12:55:37;53.40;1.00
774;DHT22;370;48.810;9.150;2023-09-07T12:58:04;54.10;1.00
774;DHT22;370;48.810;9.150;2023-09-07T13:00:32;54.50;1.00
774;DHT22;370;48.810;9.150;2023-09-07T13:02:59;54.50;1.00
774;DHT22;370;48.810;9.150;2023-09-07T13:05:26;55.20;1.00
774;DHT22;370;48.810;9.150;2023-09-07T13:07:52;54.40;1.00
774;DHT22;370;48.810;9.150;2023-09-07T13:10:23;55.20;1.00
774;DHT22;370;48.810;9.150;2023-09-07T13:12:50;56.00;1.00
774;DHT22;370;48.810;9.150;2023-09-07T13:15:17;56.40;1.00
774;DHT22;370;48.810;9.150;2023-09-07T13:17:45;56.40;1.00
774;DHT22;370;48.810;9.150;2023-09-07T13:20:12;54.60;1.00
774;DHT22;370;48.810;9.150;2023-09-07T13:22:39;55.30;1.00
774;DHT22;370;48.810;9.150;2023-09-07T13:25:06;55.40;1.00
774;DHT22;370;48.810;9.150;2023-09-07T13:27:33;55.50;1.00
774;DHT22;370;48.810;9.150;2023-09-07T13:30:00;55.00;1.00
774;DHT22;370;48.810;9.150;2023-09-07T13:32:27;54.70;1.00
774;DHT22;370;48.810;9.150;2023-09-07T13:34:55;54.70;1.00
774;DHT22;370;48.810;9.150;2023-09-07T13:37:22;54.70;1.00
774;DHT22;370;48.810;9.150;2023-09-07T13:39:48;54.70;1.00
774;DHT22;370;48.810;9.150;2023-09-07T13:42:49;53.30;1.00
774;DHT22;370;48.810;9.150;2023-09-07T13:45:16;51.10;1.00
774;DHT22;370;48.810;9.150;2023-09-07T13:51:07;50.20;1.00
774;DHT22;370;48.810;9.150;2023-09-07T13:53:33;50.30;1.00
774;DHT22;370;48.810;9.150;2023-09-07T13:56:00;51.10;1.00
774;DHT22;370;48.810;9.150;2023-09-07T13:58:27;51.90;1.00
774;DHT22;370;48.810;9.150;2023-09-07T14:00:54;52.20;1.00
774;DHT22;370;48.810;9.150;2023-09-07T14:03:20;51.70;1.00
774;DHT22;370;48.810;9.150;2023-09-07T14:05:47;51.70;1.00
774;DHT22;370;48.810;9.150;2023-09-07T14:08:15;51.60;1.00
774;DHT22;370;48.810;9.150;2023-09-07T14:14:04;52.10;1.00
774;DHT22;370;48.810;9.150;2023-09-07T14:16:31;51.20;1.00
774;DHT22;370;48.810;9.150;2023-09-07T14:18:59;52.00;1.00
774;DHT22;370;48.810;9.150;2023-09-07T14:21:25;52.20;1.00
774;DHT22;370;48.810;9.150;2023-09-07T14:23:54;52.40;1.00
774;DHT22;370;48.810;9.150;2023-09-07T14:26:21;52.60;1.00
774;DHT22;370;48.810;9.150;2023-09-07T14:28:47;52.00;1.00
774;DHT22;370;48.810;9.150;2023-09-07T14:34:44;52.10;1.00
774;DHT22;370;48.810;9.150;2023-09-07T14:40:35;50.40;1.00
774;DHT22;370;48.810;9.150;2023-09-07T14:43:01;49.40;1.00
774;DHT22;370;48.810;9.150;2023-09-07T14:45:28;49.20;1.00
774;DHT22;370;48.810;9.150;2023-09-07T14:47:55;49.20;1.00
774;DHT22;370;48.810;9.150;2023-09-07T14:50:22;48.10;1.00
774;DHT22;370;48.810;9.150;2023-09-07T14:52:48;48.00;1.00
774;DHT22;370;48.810;9.150;2023-09-07T14:55:16;48.10;1.00
774;DHT22;370;48.810;9.150;2023-09-07T14:57:44;48.00;1.00
774;DHT22;370;48.810;9.150;2023-09-07T15:00:11;47.70;1.00
774;DHT22;370;48.810;9.150;2023-09-07T15:02:38;46.30;1.00
774;DHT22;370;48.810;9.150;2023-09-07T15:05:05;45.60;1.00
774;DHT22;370;48.810;9.150;2023-09-07T15:10:54;45.90;1.00
774;DHT22;370;48.810;9.150;2023-09-07T15:13:22;45.30;1.00
774;DHT22;370;48.810;9.150;2023-09-07T15:15:49;45.60;1.00
774;DHT22;370;48.810;9.150;2023-09-07T15:18:15;45.40;1.00
774;DHT22;370;48.810;9.150;2023-09-07T15:20:42;45.50;1.00
774;DHT22;370;48.810;9.150;2023-09-07T15:23:09;46.00;1.00
774;DHT22;370;48.810;9.150;2023-09-07T15:25:36;46.20;1.00
774;DHT22;370;48.810;9.150;2023-09-07T15:28:03;45.50;1.00
774;DHT22;370;48.810;9.150;2023-09-07T15:30:35;43.60;1.00
774;DHT22;370;48.810;9.150;2023-09-07T15:33:02;43.70;1.00
774;DHT22;370;48.810;9.150;2023-09-07T15:35:29;44.10;1.00
774;DHT22;370;48.810;9.150;2023-09-07T15:37:56;44.20;1.00
774;DHT22;370;48.810;9.150;2023-09-07T15:40:23;43.70;1.00
774;DHT22;370;48.810;9.150;2023-09-07T15:42:50;42.90;1.00
774;DHT22;370;48.810;9.150;2023-09-07T15:45:17;42.90;1.00
774;DHT22;370;48.810;9.150;2023-09-07T15:47:45;42.50;1.00
774;DHT22;370;48.810;9.150;2023-09-07T15:50:13;42.10;1.00
774;DHT22;370;48.810;9.150;2023-09-07T15:52:44;42.10;1.00
774;DHT22;370;48.810;9.150;2023-09-07T15:55:12;41.80;1.00
774;DHT22;370;48.810;9.150;2023-09-07T15:57:39;41.70;1.00
774;DHT22;370;48.810;9.150;2023-09-07T16:00:07;41.40;1.00
774;DHT22;370;48.810;9.150;2023-09-07T16:02:34;41.00;1.00
774;DHT22;370;48.810;9.150;2023-09-07T16:08:25;39.70;1.00
774;DHT22;370;48.810;9.150;2023-09-07T16:10:54;39.30;1.00
774;DHT22;370;48.810;9.150;2023-09-07T16:13:21;39.10;1.00
774;DHT22;370;48.810;9.150;2023-09-07T16:15:48;39.00;1.00
774;DHT22;370;48.810;9.150;2023-09-07T16:18:14;39.00;1.00
774;DHT22;370;48.810;9.150;2023-09-07T16:20:41;37.60;1.00
774;DHT22;370;48.810;9.150;2023-09-07T16:23:09;36.90;1.00
774;DHT22;370;48.810;9.150;2023-09-07T16:25:37;37.00;1.00
774;DHT22;370;48.810;9.150;2023-09-07T16:28:05;37.10;1.00
774;DHT22;370;48.810;9.150;2023-09-07T16:30:32;36.80;1.00
774;DHT22;370;48.810;9.150;2023-09-07T16:32:59;36.20;1.00
774;DHT22;370;48.810;9.150;2023-09-07T16:35:25;35.70;1.00
774;DHT22;370;48.810;9.150;2023-09-07T16:37:52;35.60;1.00
774;DHT22;370;48.810;9.150;2023-09-07T16:40:19;35.30;1.00
774;DHT22;370;48.810;9.150;2023-09-07T16:42:47;34.60;1.00
774;DHT22;370;48.810;9.150;2023-09-07T16:45:14;34.10;1.00
774;DHT22;370;48.810;9.150;2023-09-07T16:47:42;33.60;1.00
774;DHT22;370;48.810;9.150;2023-09-07T16:50:09;32.70;1.00
774;DHT22;370;48.810;9.150;2023-09-07T16:52:36;31.90;1.00
774;DHT22;370;48.810;9.150;2023-09-07T16:55:03;31.20;1.00
774;DHT22;370;48.810;9.150;2023-09-07T16:57:31;30.60;1.00
774;DHT22;370;48.810;9.150;2023-09-07T17:03:23;29.60;1.00
774;DHT22;370;48.810;9.150;2023-09-07T17:05:50;29.00;1.00
774;DHT22;370;48.810;9.150;2023-09-07T17:08:17;28.80;1.00
774;DHT22;370;48.810;9.150;2023-09-07T17:10:44;28.60;1.00
774;DHT22;370;48.810;9.150;2023-09-07T17:13:11;28.30;1.00
774;DHT22;370;48.810;9.150;2023-09-07T17:15:38;28.20;1.00
774;DHT22;370;48.810;9.150;2023-09-07T17:18:05;27.90;1.00
774;DHT22;370;48.810;9.150;2023-09-07T17:20:36;27.70;1.00
774;DHT22;370;48.810;9.150;2023-09-07T17:23:03;27.50;1.00
774;DHT22;370;48.810;9.150;2023-09-07T17:25:32;27.30;1.00
774;DHT22;370;48.810;9.150;2023-09-07T17:28:00;27.20;1.00
774;DHT22;370;48.810;9.150;2023-09-07T17:30:28;27.10;1.00
774;DHT22;370;48.810;9.150;2023-09-07T17:32:56;27.00;1.00
774;DHT22;370;48.810;9.150;2023-09-07T17:35:24;26.80;1.00
774;DHT22;370;48.810;9.150;2023-09-07T17:37:52;26.60;1.00